Bedford Heights, Ohio
Current Conditions -  °F | °C
As of 12:45 PM on Wednesday 26 Nov 2014 (Local Time) from KCGF Reporting Station
Overcast Overcast  
Wind Chill: 32°   Ceiling: 3000
Heat Index: 37°   Visibility: 10mi
Dew Point: 28°   Wind: 7mph
Humidity: 70%   Direction: 50°NE
Pressure: 30.08"   Gusts: NA
Location:  41.41°N, 81.5°W
Report Text: KCGF 261745Z 05006KT 10SM OVC030 03/M02 A3008
Loading
Personal Weather Stations






























Interactive Weather Map New forecast layout! Learn more

10-Day Weather Forecast

Advertisements
Track Severe Weather on mobile